sensor_id;sensor_type;location;lat;lon;timestamp;P1;durP1;ratioP1;P2;durP2;ratioP2
45792;SDS011;31495;42.740;22.908;2022-12-24T00:00:20;29.88;;;15.63;;
45792;SDS011;31495;42.740;22.908;2022-12-24T00:01:20;31.00;;;16.02;;
45792;SDS011;31495;42.740;22.908;2022-12-24T00:02:19;36.78;;;18.05;;
45792;SDS011;31495;42.740;22.908;2022-12-24T00:03:20;37.40;;;16.92;;
45792;SDS011;31495;42.740;22.908;2022-12-24T00:04:23;33.67;;;15.93;;
45792;SDS011;31495;42.740;22.908;2022-12-24T00:05:23;32.80;;;16.25;;
45792;SDS011;31495;42.740;22.908;2022-12-24T00:06:23;29.17;;;14.02;;
45792;SDS011;31495;42.740;22.908;2022-12-24T00:07:25;31.75;;;14.30;;
45792;SDS011;31495;42.740;22.908;2022-12-24T00:08:25;21.70;;;11.48;;
45792;SDS011;31495;42.740;22.908;2022-12-24T00:09:24;24.13;;;12.30;;
45792;SDS011;31495;42.740;22.908;2022-12-24T00:10:24;18.52;;;9.40;;
45792;SDS011;31495;42.740;22.908;2022-12-24T00:11:24;21.65;;;10.32;;
45792;SDS011;31495;42.740;22.908;2022-12-24T00:12:23;21.05;;;9.50;;
45792;SDS011;31495;42.740;22.908;2022-12-24T00:13:24;21.90;;;9.88;;
45792;SDS011;31495;42.740;22.908;2022-12-24T00:14:24;17.20;;;9.48;;
45792;SDS011;31495;42.740;22.908;2022-12-24T00:15:27;21.50;;;9.50;;
45792;SDS011;31495;42.740;22.908;2022-12-24T00:16:27;21.85;;;9.95;;
45792;SDS011;31495;42.740;22.908;2022-12-24T00:17:27;20.15;;;10.27;;
45792;SDS011;31495;42.740;22.908;2022-12-24T00:18:27;22.40;;;11.68;;
45792;SDS011;31495;42.740;22.908;2022-12-24T00:21:24;22.38;;;11.75;;
45792;SDS011;31495;42.740;22.908;2022-12-24T00:22:24;18.75;;;9.02;;
45792;SDS011;31495;42.740;22.908;2022-12-24T00:23:24;17.95;;;9.07;;
45792;SDS011;31495;42.740;22.908;2022-12-24T00:24:24;20.15;;;9.60;;
45792;SDS011;31495;42.740;22.908;2022-12-24T00:25:24;22.50;;;8.85;;
45792;SDS011;31495;42.740;22.908;2022-12-24T00:26:24;21.30;;;9.82;;
45792;SDS011;31495;42.740;22.908;2022-12-24T00:27:24;22.15;;;11.02;;
45792;SDS011;31495;42.740;22.908;2022-12-24T00:28:24;16.58;;;8.38;;
45792;SDS011;31495;42.740;22.908;2022-12-24T00:29:24;17.13;;;8.43;;
45792;SDS011;31495;42.740;22.908;2022-12-24T00:30:27;19.65;;;7.55;;
45792;SDS011;31495;42.740;22.908;2022-12-24T00:31:26;18.08;;;8.48;;
45792;SDS011;31495;42.740;22.908;2022-12-24T00:32:26;19.15;;;8.52;;
45792;SDS011;31495;42.740;22.908;2022-12-24T00:33:26;20.27;;;10.07;;
45792;SDS011;31495;42.740;22.908;2022-12-24T00:34:26;17.10;;;9.90;;
45792;SDS011;31495;42.740;22.908;2022-12-24T00:35:26;19.13;;;10.48;;
45792;SDS011;31495;42.740;22.908;2022-12-24T00:36:28;16.08;;;8.88;;
45792;SDS011;31495;42.740;22.908;2022-12-24T00:37:31;19.30;;;9.35;;
45792;SDS011;31495;42.740;22.908;2022-12-24T00:38:30;17.02;;;10.88;;
45792;SDS011;31495;42.740;22.908;2022-12-24T00:39:30;17.23;;;9.20;;
45792;SDS011;31495;42.740;22.908;2022-12-24T00:40:29;16.00;;;9.00;;
45792;SDS011;31495;42.740;22.908;2022-12-24T00:41:30;16.38;;;8.18;;
45792;SDS011;31495;42.740;22.908;2022-12-24T00:42:30;16.67;;;8.23;;
45792;SDS011;31495;42.740;22.908;2022-12-24T00:43:30;16.60;;;8.15;;
45792;SDS011;31495;42.740;22.908;2022-12-24T00:44:30;21.17;;;10.35;;
45792;SDS011;31495;42.740;22.908;2022-12-24T00:45:30;18.02;;;9.73;;
45792;SDS011;31495;42.740;22.908;2022-12-24T00:46:33;19.40;;;9.98;;
45792;SDS011;31495;42.740;22.908;2022-12-24T00:47:35;20.13;;;8.98;;
45792;SDS011;31495;42.740;22.908;2022-12-24T00:48:34;24.25;;;11.75;;
45792;SDS011;31495;42.740;22.908;2022-12-24T00:49:34;17.85;;;8.60;;
45792;SDS011;31495;42.740;22.908;2022-12-24T00:50:33;17.85;;;10.50;;
45792;SDS011;31495;42.740;22.908;2022-12-24T00:51:34;21.83;;;11.20;;
45792;SDS011;31495;42.740;22.908;2022-12-24T00:52:34;18.02;;;10.10;;
45792;SDS011;31495;42.740;22.908;2022-12-24T00:53:37;22.20;;;11.30;;
45792;SDS011;31495;42.740;22.908;2022-12-24T00:54:37;25.33;;;11.48;;
45792;SDS011;31495;42.740;22.908;2022-12-24T00:55:39;23.75;;;11.45;;
45792;SDS011;31495;42.740;22.908;2022-12-24T00:56:38;25.85;;;11.75;;
45792;SDS011;31495;42.740;22.908;2022-12-24T00:57:38;24.35;;;12.30;;
45792;SDS011;31495;42.740;22.908;2022-12-24T00:58:37;25.95;;;11.27;;
45792;SDS011;31495;42.740;22.908;2022-12-24T00:59:37;26.67;;;12.90;;
45792;SDS011;31495;42.740;22.908;2022-12-24T01:00:36;25.23;;;11.80;;
45792;SDS011;31495;42.740;22.908;2022-12-24T01:01:36;19.65;;;10.75;;
45792;SDS011;31495;42.740;22.908;2022-12-24T01:02:36;23.30;;;9.82;;
45792;SDS011;31495;42.740;22.908;2022-12-24T01:03:36;20.55;;;10.05;;
45792;SDS011;31495;42.740;22.908;2022-12-24T01:04:35;17.33;;;8.35;;
45792;SDS011;31495;42.740;22.908;2022-12-24T01:05:54;15.07;;;7.47;;
45792;SDS011;31495;42.740;22.908;2022-12-24T01:06:53;17.58;;;8.35;;
45792;SDS011;31495;42.740;22.908;2022-12-24T01:07:54;18.25;;;7.70;;
45792;SDS011;31495;42.740;22.908;2022-12-24T01:08:53;17.13;;;8.60;;
45792;SDS011;31495;42.740;22.908;2022-12-24T01:09:52;20.42;;;9.98;;
45792;SDS011;31495;42.740;22.908;2022-12-24T01:10:52;19.92;;;8.95;;
45792;SDS011;31495;42.740;22.908;2022-12-24T01:11:52;19.65;;;10.57;;
45792;SDS011;31495;42.740;22.908;2022-12-24T01:12:51;21.75;;;10.48;;
45792;SDS011;31495;42.740;22.908;2022-12-24T01:13:51;21.90;;;11.07;;
45792;SDS011;31495;42.740;22.908;2022-12-24T01:14:51;24.35;;;12.15;;
45792;SDS011;31495;42.740;22.908;2022-12-24T01:15:50;29.42;;;15.48;;
45792;SDS011;31495;42.740;22.908;2022-12-24T01:16:50;24.65;;;12.05;;
45792;SDS011;31495;42.740;22.908;2022-12-24T01:17:50;20.17;;;10.75;;
45792;SDS011;31495;42.740;22.908;2022-12-24T01:18:50;12.52;;;7.70;;
45792;SDS011;31495;42.740;22.908;2022-12-24T01:19:50;16.52;;;8.65;;
45792;SDS011;31495;42.740;22.908;2022-12-24T01:20:56;14.68;;;8.27;;
45792;SDS011;31495;42.740;22.908;2022-12-24T01:22:00;16.63;;;8.68;;
45792;SDS011;31495;42.740;22.908;2022-12-24T01:23:00;15.05;;;6.97;;
45792;SDS011;31495;42.740;22.908;2022-12-24T01:24:00;14.35;;;7.45;;
45792;SDS011;31495;42.740;22.908;2022-12-24T01:25:02;16.35;;;8.32;;
45792;SDS011;31495;42.740;22.908;2022-12-24T01:26:03;20.05;;;10.13;;
45792;SDS011;31495;42.740;22.908;2022-12-24T01:27:03;20.90;;;10.85;;
45792;SDS011;31495;42.740;22.908;2022-12-24T01:28:03;19.50;;;9.32;;
45792;SDS011;31495;42.740;22.908;2022-12-24T01:29:03;20.33;;;10.07;;
45792;SDS011;31495;42.740;22.908;2022-12-24T01:30:04;22.05;;;11.35;;
45792;SDS011;31495;42.740;22.908;2022-12-24T01:31:12;28.20;;;13.27;;
45792;SDS011;31495;42.740;22.908;2022-12-24T01:32:15;23.17;;;11.60;;
45792;SDS011;31495;42.740;22.908;2022-12-24T01:33:15;19.10;;;10.50;;
45792;SDS011;31495;42.740;22.908;2022-12-24T01:34:14;20.40;;;10.75;;
45792;SDS011;31495;42.740;22.908;2022-12-24T01:35:14;19.60;;;9.50;;
45792;SDS011;31495;42.740;22.908;2022-12-24T01:36:14;21.30;;;10.85;;
45792;SDS011;31495;42.740;22.908;2022-12-24T01:37:14;21.63;;;11.25;;
45792;SDS011;31495;42.740;22.908;2022-12-24T01:38:13;24.20;;;11.80;;
45792;SDS011;31495;42.740;22.908;2022-12-24T01:39:13;22.15;;;10.88;;
45792;SDS011;31495;42.740;22.908;2022-12-24T01:40:14;25.38;;;11.40;;
45792;SDS011;31495;42.740;22.908;2022-12-24T01:41:34;30.15;;;15.35;;
45792;SDS011;31495;42.740;22.908;2022-12-24T01:42:52;29.05;;;15.88;;
45792;SDS011;31495;42.740;22.908;2022-12-24T01:44:22;32.15;;;15.25;;
45792;SDS011;31495;42.740;22.908;2022-12-24T01:46:35;31.27;;;14.57;;
45792;SDS011;31495;42.740;22.908;2022-12-24T01:47:34;31.48;;;15.05;;
45792;SDS011;31495;42.740;22.908;2022-12-24T01:48:41;34.70;;;15.80;;
45792;SDS011;31495;42.740;22.908;2022-12-24T01:50:33;36.30;;;16.08;;
45792;SDS011;31495;42.740;22.908;2022-12-24T01:52:34;27.05;;;12.95;;
45792;SDS011;31495;42.740;22.908;2022-12-24T01:53:36;27.65;;;12.55;;
45792;SDS011;31495;42.740;22.908;2022-12-24T01:54:39;22.60;;;11.40;;
45792;SDS011;31495;42.740;22.908;2022-12-24T01:55:45;18.17;;;9.55;;
45792;SDS011;31495;42.740;22.908;2022-12-24T01:56:48;17.70;;;9.13;;
45792;SDS011;31495;42.740;22.908;2022-12-24T01:58:00;16.75;;;8.70;;
45792;SDS011;31495;42.740;22.908;2022-12-24T01:59:10;24.02;;;10.52;;
45792;SDS011;31495;42.740;22.908;2022-12-24T02:00:16;21.67;;;10.30;;
45792;SDS011;31495;42.740;22.908;2022-12-24T02:01:16;17.33;;;9.75;;
45792;SDS011;31495;42.740;22.908;2022-12-24T02:02:16;20.35;;;9.15;;
45792;SDS011;31495;42.740;22.908;2022-12-24T02:03:17;20.65;;;10.30;;
45792;SDS011;31495;42.740;22.908;2022-12-24T02:04:26;19.85;;;9.95;;
45792;SDS011;31495;42.740;22.908;2022-12-24T02:05:48;16.08;;;9.02;;
45792;SDS011;31495;42.740;22.908;2022-12-24T02:07:41;15.63;;;8.50;;
45792;SDS011;31495;42.740;22.908;2022-12-24T02:08:42;15.30;;;8.25;;
45792;SDS011;31495;42.740;22.908;2022-12-24T02:09:43;19.52;;;9.43;;
45792;SDS011;31495;42.740;22.908;2022-12-24T02:10:43;22.90;;;9.18;;
45792;SDS011;31495;42.740;22.908;2022-12-24T02:11:46;18.13;;;9.85;;
45792;SDS011;31495;42.740;22.908;2022-12-24T02:17:27;20.02;;;12.90;;
45792;SDS011;31495;42.740;22.908;2022-12-24T02:18:38;22.08;;;11.10;;
45792;SDS011;31495;42.740;22.908;2022-12-24T02:21:38;20.05;;;10.93;;
45792;SDS011;31495;42.740;22.908;2022-12-24T02:24:30;24.70;;;12.73;;
45792;SDS011;31495;42.740;22.908;2022-12-24T02:29:34;26.48;;;12.15;;
45792;SDS011;31495;42.740;22.908;2022-12-24T02:30:46;20.48;;;10.23;;
45792;SDS011;31495;42.740;22.908;2022-12-24T02:31:49;19.05;;;9.50;;
45792;SDS011;31495;42.740;22.908;2022-12-24T02:33:41;19.77;;;9.85;;
45792;SDS011;31495;42.740;22.908;2022-12-24T02:34:28;19.60;;;8.52;;
45792;SDS011;31495;42.740;22.908;2022-12-24T02:36:41;17.83;;;8.95;;
45792;SDS011;31495;42.740;22.908;2022-12-24T02:37:47;15.90;;;8.85;;
45792;SDS011;31495;42.740;22.908;2022-12-24T02:39:19;14.68;;;8.30;;
45792;SDS011;31495;42.740;22.908;2022-12-24T02:40:27;16.85;;;8.93;;
45792;SDS011;31495;42.740;22.908;2022-12-24T02:41:35;16.65;;;7.95;;
45792;SDS011;31495;42.740;22.908;2022-12-24T02:43:04;14.25;;;7.75;;
45792;SDS011;31495;42.740;22.908;2022-12-24T02:44:11;13.65;;;8.35;;
45792;SDS011;31495;42.740;22.908;2022-12-24T02:45:12;15.60;;;8.45;;
45792;SDS011;31495;42.740;22.908;2022-12-24T02:46:15;15.35;;;8.32;;
45792;SDS011;31495;42.740;22.908;2022-12-24T02:47:19;18.45;;;9.18;;
45792;SDS011;31495;42.740;22.908;2022-12-24T02:48:22;25.17;;;11.48;;
45792;SDS011;31495;42.740;22.908;2022-12-24T02:49:22;17.13;;;9.43;;
45792;SDS011;31495;42.740;22.908;2022-12-24T02:50:22;22.92;;;9.27;;
45792;SDS011;31495;42.740;22.908;2022-12-24T02:51:23;20.77;;;8.77;;
45792;SDS011;31495;42.740;22.908;2022-12-24T02:52:42;20.00;;;9.95;;
45792;SDS011;31495;42.740;22.908;2022-12-24T02:53:43;17.05;;;8.38;;
45792;SDS011;31495;42.740;22.908;2022-12-24T02:54:42;15.65;;;8.65;;
45792;SDS011;31495;42.740;22.908;2022-12-24T03:03:34;17.33;;;8.25;;
45792;SDS011;31495;42.740;22.908;2022-12-24T03:04:52;17.13;;;7.90;;
45792;SDS011;31495;42.740;22.908;2022-12-24T03:05:59;18.08;;;9.38;;
45792;SDS011;31495;42.740;22.908;2022-12-24T03:07:28;19.60;;;9.82;;
45792;SDS011;31495;42.740;22.908;2022-12-24T03:08:31;24.13;;;11.02;;
45792;SDS011;31495;42.740;22.908;2022-12-24T03:09:49;19.30;;;9.73;;
45792;SDS011;31495;42.740;22.908;2022-12-24T03:10:55;16.08;;;8.98;;
45792;SDS011;31495;42.740;22.908;2022-12-24T03:12:02;21.08;;;11.50;;
45792;SDS011;31495;42.740;22.908;2022-12-24T03:13:09;24.13;;;10.95;;
45792;SDS011;31495;42.740;22.908;2022-12-24T03:14:13;23.17;;;9.77;;
45792;SDS011;31495;42.740;22.908;2022-12-24T03:15:15;18.77;;;10.25;;
45792;SDS011;31495;42.740;22.908;2022-12-24T03:16:21;18.30;;;9.05;;
45792;SDS011;31495;42.740;22.908;2022-12-24T03:17:22;20.17;;;10.95;;
45792;SDS011;31495;42.740;22.908;2022-12-24T03:18:23;24.63;;;12.15;;
45792;SDS011;31495;42.740;22.908;2022-12-24T03:19:24;21.92;;;11.73;;
45792;SDS011;31495;42.740;22.908;2022-12-24T03:20:28;24.20;;;12.55;;
45792;SDS011;31495;42.740;22.908;2022-12-24T03:21:33;23.80;;;12.30;;
45792;SDS011;31495;42.740;22.908;2022-12-24T03:22:36;23.15;;;11.40;;
45792;SDS011;31495;42.740;22.908;2022-12-24T03:23:37;24.92;;;13.10;;
45792;SDS011;31495;42.740;22.908;2022-12-24T03:24:37;21.05;;;9.30;;
45792;SDS011;31495;42.740;22.908;2022-12-24T03:25:37;20.13;;;10.25;;
45792;SDS011;31495;42.740;22.908;2022-12-24T03:26:39;18.52;;;10.18;;
45792;SDS011;31495;42.740;22.908;2022-12-24T03:27:39;23.08;;;10.77;;
45792;SDS011;31495;42.740;22.908;2022-12-24T03:28:39;18.48;;;10.70;;
45792;SDS011;31495;42.740;22.908;2022-12-24T03:29:39;21.95;;;11.55;;
45792;SDS011;31495;42.740;22.908;2022-12-24T03:30:40;25.13;;;11.32;;
45792;SDS011;31495;42.740;22.908;2022-12-24T03:31:49;24.38;;;10.80;;
45792;SDS011;31495;42.740;22.908;2022-12-24T03:32:50;25.67;;;11.70;;
45792;SDS011;31495;42.740;22.908;2022-12-24T03:33:49;29.17;;;14.02;;
45792;SDS011;31495;42.740;22.908;2022-12-24T03:34:49;26.88;;;15.02;;
45792;SDS011;31495;42.740;22.908;2022-12-24T03:35:49;28.70;;;15.18;;
45792;SDS011;31495;42.740;22.908;2022-12-24T03:36:48;29.30;;;13.63;;
45792;SDS011;31495;42.740;22.908;2022-12-24T03:37:48;24.50;;;14.85;;
45792;SDS011;31495;42.740;22.908;2022-12-24T03:38:47;25.92;;;14.77;;
45792;SDS011;31495;42.740;22.908;2022-12-24T03:39:47;30.98;;;13.70;;
45792;SDS011;31495;42.740;22.908;2022-12-24T03:40:46;31.25;;;14.27;;
45792;SDS011;31495;42.740;22.908;2022-12-24T03:41:46;26.77;;;13.48;;
45792;SDS011;31495;42.740;22.908;2022-12-24T03:42:46;31.15;;;14.10;;
45792;SDS011;31495;42.740;22.908;2022-12-24T03:43:45;22.67;;;11.65;;
45792;SDS011;31495;42.740;22.908;2022-12-24T03:44:45;22.77;;;12.52;;
45792;SDS011;31495;42.740;22.908;2022-12-24T03:45:44;24.45;;;11.65;;
45792;SDS011;31495;42.740;22.908;2022-12-24T03:46:44;19.20;;;9.45;;
45792;SDS011;31495;42.740;22.908;2022-12-24T03:47:43;24.45;;;10.23;;
45792;SDS011;31495;42.740;22.908;2022-12-24T03:48:42;17.92;;;10.25;;
45792;SDS011;31495;42.740;22.908;2022-12-24T03:49:42;20.65;;;10.82;;
45792;SDS011;31495;42.740;22.908;2022-12-24T03:50:41;23.83;;;11.65;;
45792;SDS011;31495;42.740;22.908;2022-12-24T03:51:40;18.40;;;9.77;;
45792;SDS011;31495;42.740;22.908;2022-12-24T03:52:40;23.13;;;11.23;;
45792;SDS011;31495;42.740;22.908;2022-12-24T03:53:39;26.83;;;13.98;;
45792;SDS011;31495;42.740;22.908;2022-12-24T03:54:39;25.02;;;10.25;;
45792;SDS011;31495;42.740;22.908;2022-12-24T03:55:38;16.98;;;8.73;;
45792;SDS011;31495;42.740;22.908;2022-12-24T03:56:38;21.98;;;10.05;;
45792;SDS011;31495;42.740;22.908;2022-12-24T03:57:37;18.52;;;9.85;;
45792;SDS011;31495;42.740;22.908;2022-12-24T03:58:37;21.10;;;9.95;;
45792;SDS011;31495;42.740;22.908;2022-12-24T03:59:36;29.55;;;12.15;;
45792;SDS011;31495;42.740;22.908;2022-12-24T04:00:36;22.50;;;10.85;;
45792;SDS011;31495;42.740;22.908;2022-12-24T04:01:35;37.88;;;16.75;;
45792;SDS011;31495;42.740;22.908;2022-12-24T04:02:35;32.33;;;15.13;;
45792;SDS011;31495;42.740;22.908;2022-12-24T04:03:34;21.15;;;10.70;;
45792;SDS011;31495;42.740;22.908;2022-12-24T04:04:34;28.75;;;13.88;;
45792;SDS011;31495;42.740;22.908;2022-12-24T04:05:34;28.48;;;13.35;;
45792;SDS011;31495;42.740;22.908;2022-12-24T04:06:34;28.98;;;14.93;;
45792;SDS011;31495;42.740;22.908;2022-12-24T04:07:33;32.75;;;14.75;;
45792;SDS011;31495;42.740;22.908;2022-12-24T04:08:33;36.30;;;15.50;;
45792;SDS011;31495;42.740;22.908;2022-12-24T04:09:32;31.80;;;15.48;;
45792;SDS011;31495;42.740;22.908;2022-12-24T04:10:32;34.30;;;15.93;;
45792;SDS011;31495;42.740;22.908;2022-12-24T04:11:31;38.28;;;16.67;;
45792;SDS011;31495;42.740;22.908;2022-12-24T04:12:31;35.05;;;15.70;;
45792;SDS011;31495;42.740;22.908;2022-12-24T04:13:30;26.58;;;13.38;;
45792;SDS011;31495;42.740;22.908;2022-12-24T04:14:30;27.92;;;13.50;;
45792;SDS011;31495;42.740;22.908;2022-12-24T04:15:29;25.00;;;12.77;;
45792;SDS011;31495;42.740;22.908;2022-12-24T04:16:29;26.52;;;13.32;;
45792;SDS011;31495;42.740;22.908;2022-12-24T04:17:28;25.75;;;11.43;;
45792;SDS011;31495;42.740;22.908;2022-12-24T04:18:28;14.82;;;7.82;;
45792;SDS011;31495;42.740;22.908;2022-12-24T04:19:27;13.88;;;8.10;;
45792;SDS011;31495;42.740;22.908;2022-12-24T04:20:27;19.67;;;9.20;;
45792;SDS011;31495;42.740;22.908;2022-12-24T04:21:26;19.63;;;8.70;;
45792;SDS011;31495;42.740;22.908;2022-12-24T04:22:26;16.08;;;9.30;;
45792;SDS011;31495;42.740;22.908;2022-12-24T04:23:25;18.23;;;8.15;;
45792;SDS011;31495;42.740;22.908;2022-12-24T04:24:25;21.67;;;11.10;;
45792;SDS011;31495;42.740;22.908;2022-12-24T04:25:25;26.73;;;11.65;;
45792;SDS011;31495;42.740;22.908;2022-12-24T04:26:24;25.35;;;10.50;;
45792;SDS011;31495;42.740;22.908;2022-12-24T04:27:24;19.95;;;9.73;;
45792;SDS011;31495;42.740;22.908;2022-12-24T04:28:24;22.17;;;12.45;;
45792;SDS011;31495;42.740;22.908;2022-12-24T04:29:23;27.88;;;13.68;;
45792;SDS011;31495;42.740;22.908;2022-12-24T04:30:23;29.42;;;13.50;;
45792;SDS011;31495;42.740;22.908;2022-12-24T04:31:22;36.83;;;15.85;;
45792;SDS011;31495;42.740;22.908;2022-12-24T04:32:22;39.85;;;18.23;;
45792;SDS011;31495;42.740;22.908;2022-12-24T04:33:23;37.63;;;17.42;;
45792;SDS011;31495;42.740;22.908;2022-12-24T04:34:22;27.42;;;12.15;;
45792;SDS011;31495;42.740;22.908;2022-12-24T04:35:21;24.48;;;11.70;;
45792;SDS011;31495;42.740;22.908;2022-12-24T04:36:21;26.08;;;11.52;;
45792;SDS011;31495;42.740;22.908;2022-12-24T04:37:21;24.52;;;12.18;;
45792;SDS011;31495;42.740;22.908;2022-12-24T04:38:21;25.23;;;11.95;;
45792;SDS011;31495;42.740;22.908;2022-12-24T04:39:20;24.10;;;12.30;;
45792;SDS011;31495;42.740;22.908;2022-12-24T04:40:20;23.13;;;11.85;;
45792;SDS011;31495;42.740;22.908;2022-12-24T04:41:20;24.52;;;11.38;;
45792;SDS011;31495;42.740;22.908;2022-12-24T04:42:20;21.50;;;11.82;;
45792;SDS011;31495;42.740;22.908;2022-12-24T04:43:20;28.65;;;13.63;;
45792;SDS011;31495;42.740;22.908;2022-12-24T04:44:19;23.55;;;12.52;;
45792;SDS011;31495;42.740;22.908;2022-12-24T04:45:19;27.45;;;12.00;;
45792;SDS011;31495;42.740;22.908;2022-12-24T04:46:20;22.13;;;11.85;;
45792;SDS011;31495;42.740;22.908;2022-12-24T04:47:20;16.92;;;9.48;;
45792;SDS011;31495;42.740;22.908;2022-12-24T04:48:20;23.10;;;11.18;;
45792;SDS011;31495;42.740;22.908;2022-12-24T04:49:20;18.77;;;10.32;;
45792;SDS011;31495;42.740;22.908;2022-12-24T04:50:19;23.20;;;10.52;;
45792;SDS011;31495;42.740;22.908;2022-12-24T04:51:19;23.08;;;12.15;;
45792;SDS011;31495;42.740;22.908;2022-12-24T04:52:18;23.77;;;11.43;;
45792;SDS011;31495;42.740;22.908;2022-12-24T04:53:18;22.50;;;11.75;;
45792;SDS011;31495;42.740;22.908;2022-12-24T04:54:17;19.80;;;10.65;;
45792;SDS011;31495;42.740;22.908;2022-12-24T04:55:17;22.45;;;11.15;;
45792;SDS011;31495;42.740;22.908;2022-12-24T04:56:17;24.63;;;11.23;;
45792;SDS011;31495;42.740;22.908;2022-12-24T04:57:22;24.02;;;12.13;;
45792;SDS011;31495;42.740;22.908;2022-12-24T04:58:21;26.02;;;12.35;;
45792;SDS011;31495;42.740;22.908;2022-12-24T04:59:21;29.98;;;14.32;;
45792;SDS011;31495;42.740;22.908;2022-12-24T05:00:20;22.55;;;12.27;;
45792;SDS011;31495;42.740;22.908;2022-12-24T05:01:20;21.20;;;10.48;;
45792;SDS011;31495;42.740;22.908;2022-12-24T05:02:21;22.25;;;10.75;;
45792;SDS011;31495;42.740;22.908;2022-12-24T05:03:21;23.70;;;12.63;;
45792;SDS011;31495;42.740;22.908;2022-12-24T05:04:20;23.90;;;11.95;;
45792;SDS011;31495;42.740;22.908;2022-12-24T05:05:20;37.65;;;12.50;;
45792;SDS011;31495;42.740;22.908;2022-12-24T05:06:22;30.25;;;12.30;;
45792;SDS011;31495;42.740;22.908;2022-12-24T05:07:23;27.15;;;13.88;;
45792;SDS011;31495;42.740;22.908;2022-12-24T05:08:22;29.05;;;13.15;;
45792;SDS011;31495;42.740;22.908;2022-12-24T05:09:22;27.70;;;13.32;;
45792;SDS011;31495;42.740;22.908;2022-12-24T05:10:21;28.95;;;13.55;;
45792;SDS011;31495;42.740;22.908;2022-12-24T05:11:21;28.58;;;13.00;;
45792;SDS011;31495;42.740;22.908;2022-12-24T05:12:21;28.75;;;14.15;;
45792;SDS011;31495;42.740;22.908;2022-12-24T05:13:21;24.00;;;13.00;;
45792;SDS011;31495;42.740;22.908;2022-12-24T05:14:21;26.92;;;11.55;;
45792;SDS011;31495;42.740;22.908;2022-12-24T05:15:20;24.38;;;12.63;;
45792;SDS011;31495;42.740;22.908;2022-12-24T05:16:20;28.27;;;12.63;;
45792;SDS011;31495;42.740;22.908;2022-12-24T05:17:21;23.13;;;11.65;;
45792;SDS011;31495;42.740;22.908;2022-12-24T05:18:20;27.45;;;12.45;;
45792;SDS011;31495;42.740;22.908;2022-12-24T05:19:21;24.05;;;11.95;;
45792;SDS011;31495;42.740;22.908;2022-12-24T05:20:20;24.35;;;11.85;;
45792;SDS011;31495;42.740;22.908;2022-12-24T05:21:20;23.52;;;12.20;;
45792;SDS011;31495;42.740;22.908;2022-12-24T05:22:22;23.13;;;11.45;;
45792;SDS011;31495;42.740;22.908;2022-12-24T05:23:40;18.17;;;8.85;;
45792;SDS011;31495;42.740;22.908;2022-12-24T05:24:59;17.05;;;8.88;;
45792;SDS011;31495;42.740;22.908;2022-12-24T05:26:22;19.88;;;10.15;;
45792;SDS011;31495;42.740;22.908;2022-12-24T05:27:25;22.85;;;10.93;;
45792;SDS011;31495;42.740;22.908;2022-12-24T05:28:25;21.42;;;11.38;;
45792;SDS011;31495;42.740;22.908;2022-12-24T05:29:25;26.75;;;12.57;;
45792;SDS011;31495;42.740;22.908;2022-12-24T05:30:25;24.17;;;11.77;;
45792;SDS011;31495;42.740;22.908;2022-12-24T05:31:26;23.90;;;13.85;;
45792;SDS011;31495;42.740;22.908;2022-12-24T05:32:27;32.47;;;15.02;;
45792;SDS011;31495;42.740;22.908;2022-12-24T05:33:27;33.35;;;15.48;;
45792;SDS011;31495;42.740;22.908;2022-12-24T05:34:27;30.88;;;16.73;;
45792;SDS011;31495;42.740;22.908;2022-12-24T05:35:26;40.90;;;17.48;;
45792;SDS011;31495;42.740;22.908;2022-12-24T05:36:26;40.78;;;19.20;;
45792;SDS011;31495;42.740;22.908;2022-12-24T05:37:26;36.90;;;21.13;;
45792;SDS011;31495;42.740;22.908;2022-12-24T05:38:25;39.30;;;18.52;;
45792;SDS011;31495;42.740;22.908;2022-12-24T05:39:24;42.05;;;17.80;;
45792;SDS011;31495;42.740;22.908;2022-12-24T05:40:24;38.92;;;20.45;;
45792;SDS011;31495;42.740;22.908;2022-12-24T05:41:24;42.63;;;19.80;;
45792;SDS011;31495;42.740;22.908;2022-12-24T05:42:24;30.50;;;16.75;;
45792;SDS011;31495;42.740;22.908;2022-12-24T05:43:24;27.83;;;15.15;;
45792;SDS011;31495;42.740;22.908;2022-12-24T05:44:24;27.52;;;14.57;;
45792;SDS011;31495;42.740;22.908;2022-12-24T05:45:23;26.33;;;13.70;;
45792;SDS011;31495;42.740;22.908;2022-12-24T05:46:23;26.27;;;15.38;;
45792;SDS011;31495;42.740;22.908;2022-12-24T05:47:24;27.93;;;15.87;;
45792;SDS011;31495;42.740;22.908;2022-12-24T05:48:23;29.65;;;14.63;;
45792;SDS011;31495;42.740;22.908;2022-12-24T05:49:23;31.73;;;15.27;;
45792;SDS011;31495;42.740;22.908;2022-12-24T05:50:23;33.53;;;18.35;;
45792;SDS011;31495;42.740;22.908;2022-12-24T05:51:22;46.72;;;22.65;;
45792;SDS011;31495;42.740;22.908;2022-12-24T05:52:22;40.35;;;20.40;;
45792;SDS011;31495;42.740;22.908;2022-12-24T05:53:21;47.05;;;23.00;;
45792;SDS011;31495;42.740;22.908;2022-12-24T05:54:21;45.17;;;23.70;;
45792;SDS011;31495;42.740;22.908;2022-12-24T05:55:20;48.33;;;23.92;;
45792;SDS011;31495;42.740;22.908;2022-12-24T05:56:20;54.85;;;26.15;;
45792;SDS011;31495;42.740;22.908;2022-12-24T05:58:21;40.78;;;21.38;;
45792;SDS011;31495;42.740;22.908;2022-12-24T05:59:20;51.03;;;27.13;;
45792;SDS011;31495;42.740;22.908;2022-12-24T06:00:20;65.78;;;30.25;;
45792;SDS011;31495;42.740;22.908;2022-12-24T06:01:20;56.92;;;25.10;;
45792;SDS011;31495;42.740;22.908;2022-12-24T06:02:20;62.55;;;27.23;;
45792;SDS011;31495;42.740;22.908;2022-12-24T06:03:20;55.20;;;27.40;;
45792;SDS011;31495;42.740;22.908;2022-12-24T06:04:19;49.00;;;25.70;;
45792;SDS011;31495;42.740;22.908;2022-12-24T06:05:19;54.60;;;26.38;;
45792;SDS011;31495;42.740;22.908;2022-12-24T06:06:20;54.42;;;27.80;;
45792;SDS011;31495;42.740;22.908;2022-12-24T06:07:22;49.65;;;24.98;;
45792;SDS011;31495;42.740;22.908;2022-12-24T06:08:21;45.70;;;21.75;;
45792;SDS011;31495;42.740;22.908;2022-12-24T06:09:21;46.50;;;25.17;;
45792;SDS011;31495;42.740;22.908;2022-12-24T06:10:20;49.83;;;27.27;;
45792;SDS011;31495;42.740;22.908;2022-12-24T06:11:21;55.97;;;27.40;;
45792;SDS011;31495;42.740;22.908;2022-12-24T06:12:22;53.17;;;26.45;;
45792;SDS011;31495;42.740;22.908;2022-12-24T06:13:21;61.25;;;30.15;;
45792;SDS011;31495;42.740;22.908;2022-12-24T06:14:21;57.45;;;29.40;;
45792;SDS011;31495;42.740;22.908;2022-12-24T06:15:20;61.92;;;28.58;;
45792;SDS011;31495;42.740;22.908;2022-12-24T06:16:21;56.67;;;30.55;;
45792;SDS011;31495;42.740;22.908;2022-12-24T06:17:21;59.72;;;31.08;;
45792;SDS011;31495;42.740;22.908;2022-12-24T06:18:21;51.08;;;28.48;;
45792;SDS011;31495;42.740;22.908;2022-12-24T06:19:21;64.80;;;33.22;;
45792;SDS011;31495;42.740;22.908;2022-12-24T06:20:22;43.78;;;24.02;;
45792;SDS011;31495;42.740;22.908;2022-12-24T06:21:21;54.55;;;28.20;;
45792;SDS011;31495;42.740;22.908;2022-12-24T06:22:21;88.07;;;43.53;;
45792;SDS011;31495;42.740;22.908;2022-12-24T06:23:21;69.57;;;40.00;;
45792;SDS011;31495;42.740;22.908;2022-12-24T06:24:22;67.53;;;38.47;;
45792;SDS011;31495;42.740;22.908;2022-12-24T06:25:21;73.55;;;38.33;;